Time;durP1;ratioP1;P1;durP2;ratioP2;P2;SDS_P1;SDS_P2;PMS_P1;PMS_P2;Temp;Humidity;BMP_temperature;BMP_pressure;BME280_temperature;BME280_humidity;BME280_pressure;Samples;Min_cycle;Max_cycle;Signal;HPM_P1;HPM_P2
2023/05/25 00:01:15;;;;;;;20.45;5.65;;;;;;;10.85;98.71;102668.03;5035680;28;20030;-71
2023/05/25 00:03:41;;;;;;;22.40;6.15;;;;;;;10.81;99.17;102666.63;5036763;28;20445;-70
2023/05/25 00:06:06;;;;;;;22.25;5.68;;;;;;;10.81;98.76;102658.41;5035617;28;20017;-70
2023/05/25 00:08:32;;;;;;;21.83;5.73;;;;;;;10.78;98.94;102655.94;5034766;28;20041;-71
2023/05/25 00:10:58;;;;;;;20.37;6.63;;;;;;;10.78;99.47;102666.06;5035141;28;20029;-72
2023/05/25 00:13:23;;;;;;;27.23;6.07;;;;;;;10.74;99.29;102657.25;5035120;28;20028;-71
2023/05/25 00:15:49;;;;;;;15.83;6.13;;;;;;;10.73;99.99;102654.69;5035872;28;20044;-71
2023/05/25 00:18:15;;;;;;;16.93;5.60;;;;;;;10.71;99.72;102662.19;5041378;28;20401;-71
2023/05/25 00:20:40;;;;;;;23.98;6.47;;;;;;;10.66;100.00;102656.31;5033084;28;20278;-73
2023/05/25 00:23:06;;;;;;;22.03;6.33;;;;;;;10.60;100.00;102665.16;5039333;28;20036;-72
2023/05/25 00:25:31;;;;;;;20.10;6.07;;;;;;;10.54;100.00;102668.50;5043476;28;20059;-72
2023/05/25 00:27:57;;;;;;;15.23;6.17;;;;;;;10.55;100.00;102670.22;5038416;28;20066;-72
2023/05/25 00:30:22;;;;;;;17.70;5.90;;;;;;;10.52;100.00;102671.38;5023375;28;20132;-72
2023/05/25 00:32:47;;;;;;;21.10;6.50;;;;;;;10.52;100.00;102667.81;5038440;28;20025;-72
2023/05/25 00:35:14;;;;;;;23.50;6.83;;;;;;;10.49;100.00;102665.34;5040586;28;20603;-72
2023/05/25 00:37:40;;;;;;;21.27;7.15;;;;;;;10.44;100.00;102664.94;5038954;28;20049;-70
2023/05/25 00:40:09;;;;;;;22.20;7.68;;;;;;;10.43;100.00;102668.72;5040706;28;20043;-72
2023/05/25 00:42:37;;;;;;;22.30;7.05;;;;;;;10.46;100.00;102671.16;5017780;28;20048;-71
2023/05/25 00:45:04;;;;;;;18.05;6.70;;;;;;;10.44;100.00;102665.81;5039546;28;20032;-71
2023/05/25 00:47:30;;;;;;;19.05;6.28;;;;;;;10.40;100.00;102664.41;5046915;28;20024;-72
2023/05/25 00:49:56;;;;;;;18.10;7.10;;;;;;;10.36;100.00;102667.59;5034515;28;20035;-71
2023/05/25 00:52:22;;;;;;;27.65;6.72;;;;;;;10.34;100.00;102662.28;5037908;28;20036;-70
2023/05/25 00:54:52;;;;;;;18.57;8.10;;;;;;;10.34;100.00;102656.78;5034422;28;20033;-71
2023/05/25 00:57:22;;;;;;;24.00;7.05;;;;;;;10.30;100.00;102654.50;5042722;28;20025;-70
2023/05/25 00:59:51;;;;;;;22.98;6.60;;;;;;;10.28;100.00;102664.75;5035435;28;20033;-71
2023/05/25 01:02:18;;;;;;;24.23;6.85;;;;;;;10.27;100.00;102666.63;5040747;28;20116;-71
2023/05/25 01:04:48;;;;;;;19.83;6.47;;;;;;;10.26;100.00;102672.25;5028746;28;20547;-71
2023/05/25 01:07:18;;;;;;;20.33;7.00;;;;;;;10.23;100.00;102681.63;5035638;28;20021;-72
2023/05/25 01:09:44;;;;;;;18.95;7.13;;;;;;;10.26;100.00;102683.22;5038151;28;20108;-72
2023/05/25 01:12:10;;;;;;;20.95;7.20;;;;;;;10.24;100.00;102683.34;5038434;28;20033;-71
2023/05/25 01:14:39;;;;;;;21.73;6.80;;;;;;;10.27;100.00;102679.44;5039118;28;20025;-72
2023/05/25 01:17:05;;;;;;;27.80;7.95;;;;;;;10.20;100.00;102672.88;5037766;28;20044;-70
2023/05/25 01:19:32;;;;;;;20.53;6.73;;;;;;;10.18;100.00;102672.13;5032854;28;20033;-70
2023/05/25 01:22:21;;;;;;;18.20;7.68;;;;;;;10.15;100.00;102676.03;5048300;28;20079;-71
2023/05/25 01:24:51;;;;;;;18.30;7.10;;;;;;;10.13;100.00;102683.53;5048377;28;20083;-70
2023/05/25 01:27:26;;;;;;;20.45;7.53;;;;;;;10.13;100.00;102685.41;5037561;28;20036;-70
2023/05/25 01:29:54;;;;;;;18.58;7.13;;;;;;;10.07;100.00;102689.63;5035940;28;20029;-70
2023/05/25 01:32:20;;;;;;;27.10;7.70;;;;;;;10.09;100.00;102689.47;5034479;28;20079;-70
2023/05/25 01:34:47;;;;;;;26.15;7.70;;;;;;;10.14;100.00;102692.63;5050915;28;20087;-71
2023/05/25 01:37:13;;;;;;;21.27;8.00;;;;;;;10.07;100.00;102689.63;5034497;28;20551;-71
2023/05/25 01:39:40;;;;;;;27.08;9.48;;;;;;;10.04;100.00;102700.00;5038646;28;20429;-71
2023/05/25 01:42:06;;;;;;;26.52;9.07;;;;;;;10.02;100.00;102697.38;5035039;28;20100;-72
2023/05/25 01:44:32;;;;;;;20.77;7.50;;;;;;;10.00;100.00;102701.28;5036323;28;20139;-71
2023/05/25 01:47:12;;;;;;;25.97;9.10;;;;;;;10.05;100.00;102696.25;5036868;28;20017;-72
2023/05/25 01:50:03;;;;;;;23.88;8.68;;;;;;;10.02;100.00;102700.13;5035381;28;20029;-72
2023/05/25 01:52:34;;;;;;;27.70;8.52;;;;;;;10.06;100.00;102706.19;5034112;28;20022;-71
2023/05/25 01:55:14;;;;;;;30.15;8.90;;;;;;;10.11;100.00;102712.97;5032566;28;20037;-71
2023/05/25 01:57:44;;;;;;;20.73;8.50;;;;;;;10.05;100.00;102713.56;5033812;28;20033;-72
2023/05/25 02:00:12;;;;;;;23.90;9.00;;;;;;;10.06;100.00;102715.28;5037630;28;20032;-70
2023/05/25 02:02:43;;;;;;;23.75;8.40;;;;;;;10.08;100.00;102717.88;5038985;28;20025;-71
2023/05/25 02:05:10;;;;;;;29.92;8.82;;;;;;;10.14;100.00;102714.53;5035637;28;20361;-71
2023/05/25 02:07:36;;;;;;;21.63;7.90;;;;;;;10.16;100.00;102712.50;5032874;28;20029;-71
2023/05/25 02:10:02;;;;;;;26.23;9.73;;;;;;;10.20;100.00;102712.03;5036859;28;20075;-69
2023/05/25 02:12:27;;;;;;;22.83;8.75;;;;;;;10.25;100.00;102717.09;5070496;28;20037;-69
2023/05/25 02:14:54;;;;;;;25.00;8.98;;;;;;;10.30;100.00;102714.78;5040111;28;20095;-70
2023/05/25 02:17:21;;;;;;;23.60;8.73;;;;;;;10.31;100.00;102714.59;5036027;28;20432;-70
2023/05/25 02:19:51;;;;;;;26.08;8.70;;;;;;;10.37;100.00;102707.66;5037933;28;20037;-70
2023/05/25 02:22:17;;;;;;;23.92;8.63;;;;;;;10.42;100.00;102703.44;5036700;28;20025;-69
2023/05/25 02:24:42;;;;;;;26.60;8.33;;;;;;;10.47;100.00;102705.75;5038209;28;20563;-70
2023/05/25 02:27:07;;;;;;;17.20;8.07;;;;;;;10.48;100.00;102705.63;5039594;28;20048;-69
2023/05/25 02:29:33;;;;;;;16.90;8.18;;;;;;;10.46;100.00;102715.84;5037074;28;20044;-69
2023/05/25 02:31:58;;;;;;;18.40;8.07;;;;;;;10.38;100.00;102710.25;5036651;28;20033;-70
2023/05/25 02:34:25;;;;;;;25.27;8.37;;;;;;;10.34;100.00;102713.44;5034209;28;20029;-71
2023/05/25 02:36:50;;;;;;;21.98;7.28;;;;;;;10.32;100.00;102705.41;5038371;28;20042;-70
2023/05/25 02:39:16;;;;;;;22.40;8.10;;;;;;;10.24;100.00;102702.53;5036043;28;20048;-69
2023/05/25 02:41:41;;;;;;;21.77;7.83;;;;;;;10.17;100.00;102700.53;5038269;28;20021;-70
2023/05/25 02:44:07;;;;;;;17.87;7.03;;;;;;;10.12;100.00;102708.31;5037999;28;20036;-71
2023/05/25 02:46:32;;;;;;;24.30;7.00;;;;;;;10.10;100.00;102700.25;5042482;28;20021;-70
2023/05/25 02:48:58;;;;;;;15.20;7.23;;;;;;;10.08;100.00;102707.78;5036024;28;20037;-71
2023/05/25 02:51:24;;;;;;;19.48;7.78;;;;;;;10.03;100.00;102709.22;5040895;28;20025;-70
2023/05/25 02:53:50;;;;;;;25.60;6.43;;;;;;;10.05;100.00;102708.09;5034984;28;20037;-70
2023/05/25 02:56:16;;;;;;;19.63;7.05;;;;;;;10.05;100.00;102712.69;5047327;28;20445;-70
2023/05/25 02:58:41;;;;;;;23.50;7.77;;;;;;;10.01;100.00;102717.56;5042302;28;20032;-70
2023/05/25 03:01:09;;;;;;;21.60;7.75;;;;;;;9.99;100.00;102718.72;5036391;28;20552;-74
2023/05/25 03:03:35;;;;;;;23.05;7.13;;;;;;;9.99;100.00;102713.25;5034570;28;20144;-73
2023/05/25 03:06:02;;;;;;;22.08;6.95;;;;;;;9.92;100.00;102717.59;5037685;28;20036;-73
2023/05/25 03:08:28;;;;;;;19.85;7.65;;;;;;;9.90;100.00;102716.84;5037907;28;20041;-73
2023/05/25 03:10:54;;;;;;;15.07;6.73;;;;;;;9.79;100.00;102717.03;5037872;28;20040;-73
2023/05/25 03:13:20;;;;;;;18.25;6.90;;;;;;;9.74;100.00;102722.06;5054478;28;20021;-73
2023/05/25 03:15:45;;;;;;;16.95;6.90;;;;;;;9.69;100.00;102713.44;5038386;28;20029;-73
2023/05/25 03:18:14;;;;;;;20.77;7.70;;;;;;;9.63;100.00;102724.97;5037648;28;20025;-73
2023/05/25 03:20:40;;;;;;;28.60;7.22;;;;;;;9.62;100.00;102725.97;5037522;28;20152;-74
2023/05/25 03:23:05;;;;;;;21.98;7.18;;;;;;;9.66;100.00;102735.63;5041264;28;20068;-74
2023/05/25 03:25:31;;;;;;;17.52;7.50;;;;;;;9.60;100.00;102730.75;5040513;28;20021;-74
2023/05/25 03:27:56;;;;;;;20.85;7.25;;;;;;;9.63;100.00;102733.16;5039235;28;20037;-74
2023/05/25 03:30:22;;;;;;;20.80;6.78;;;;;;;9.70;100.00;102740.66;5035229;28;20051;-74
2023/05/25 03:32:48;;;;;;;19.20;7.60;;;;;;;9.69;100.00;102743.53;5044692;28;20040;-74
2023/05/25 03:35:13;;;;;;;17.23;7.17;;;;;;;9.65;100.00;102736.63;5045075;28;20038;-74
2023/05/25 03:37:39;;;;;;;22.27;7.87;;;;;;;9.62;100.00;102737.78;5041171;28;20040;-72
2023/05/25 03:40:05;;;;;;;15.67;6.50;;;;;;;9.55;100.00;102744.00;5036792;28;20040;-74
2023/05/25 03:42:31;;;;;;;15.43;6.10;;;;;;;9.56;100.00;102749.28;5033900;28;20032;-75
2023/05/25 03:44:56;;;;;;;15.02;6.53;;;;;;;9.44;100.00;102744.97;5037301;28;20116;-72
2023/05/25 03:47:22;;;;;;;15.90;6.43;;;;;;;9.45;100.00;102743.13;5031962;28;20025;-73
2023/05/25 03:49:48;;;;;;;21.97;6.67;;;;;;;9.42;100.00;102752.47;5039596;28;20033;-73
2023/05/25 03:52:14;;;;;;;16.77;6.88;;;;;;;9.51;100.00;102739.81;5037884;28;20836;-73
2023/05/25 03:54:40;;;;;;;20.20;8.15;;;;;;;9.61;100.00;102735.22;5036096;28;20041;-75
2023/05/25 03:57:05;;;;;;;19.25;7.38;;;;;;;9.64;100.00;102737.63;5038998;28;20059;-74
2023/05/25 03:59:31;;;;;;;16.87;7.33;;;;;;;9.66;100.00;102741.09;5037537;28;20116;-73
2023/05/25 04:01:56;;;;;;;15.63;6.63;;;;;;;9.66;100.00;102741.94;5035381;28;20078;-74
2023/05/25 04:04:26;;;;;;;15.02;6.82;;;;;;;9.65;100.00;102740.22;5039420;28;20036;-74
2023/05/25 04:06:52;;;;;;;14.13;6.20;;;;;;;9.65;100.00;102748.44;5044294;28;20030;-72
2023/05/25 04:09:19;;;;;;;20.30;6.93;;;;;;;9.62;100.00;102747.88;5040360;28;20127;-74
2023/05/25 04:11:46;;;;;;;14.48;5.80;;;;;;;9.65;100.00;102742.97;5034997;28;20487;-73
2023/05/25 04:14:14;;;;;;;21.90;8.13;;;;;;;9.68;100.00;102748.16;5040080;28;20049;-73
2023/05/25 04:16:40;;;;;;;17.40;7.30;;;;;;;9.72;100.00;102746.00;5041771;28;20025;-71
2023/05/25 04:19:07;;;;;;;15.18;7.25;;;;;;;9.70;100.00;102737.91;5036272;28;20132;-72
2023/05/25 04:21:33;;;;;;;21.55;8.55;;;;;;;9.77;100.00;102746.44;5037378;28;20037;-70
2023/05/25 04:23:58;;;;;;;21.98;6.40;;;;;;;9.79;100.00;102748.00;5042156;28;20175;-69
2023/05/25 04:26:27;;;;;;;17.08;6.60;;;;;;;9.78;100.00;102756.34;5035920;28;20351;-72
2023/05/25 04:28:56;;;;;;;15.15;6.95;;;;;;;9.78;100.00;102753.63;5042603;28;21858;-71
2023/05/25 04:31:23;;;;;;;18.92;6.95;;;;;;;9.85;100.00;102762.97;5039976;28;20163;-72
2023/05/25 04:33:48;;;;;;;12.20;6.68;;;;;;;9.89;100.00;102765.28;5036448;28;20028;-72
2023/05/25 04:36:14;;;;;;;22.63;6.83;;;;;;;9.98;100.00;102769.00;5041957;28;20117;-72
2023/05/25 04:38:40;;;;;;;26.20;8.90;;;;;;;10.03;100.00;102770.28;5040864;28;20036;-72
2023/05/25 04:41:06;;;;;;;24.67;7.47;;;;;;;10.03;100.00;102774.91;5039908;28;20025;-72
2023/05/25 04:43:32;;;;;;;19.65;7.10;;;;;;;10.08;100.00;102780.84;5042423;28;20035;-72
2023/05/25 04:45:58;;;;;;;18.52;7.22;;;;;;;10.08;100.00;102776.22;5039734;28;20030;-71
2023/05/25 04:48:27;;;;;;;18.48;7.30;;;;;;;10.13;100.00;102775.75;5037913;28;20036;-71
2023/05/25 04:50:54;;;;;;;16.67;6.80;;;;;;;10.19;100.00;102783.41;5036588;28;20072;-71
2023/05/25 04:53:21;;;;;;;15.30;7.43;;;;;;;10.23;100.00;102784.81;5041277;28;20039;-70
2023/05/25 04:55:48;;;;;;;15.63;7.53;;;;;;;10.32;100.00;102789.44;5035537;28;20455;-71
2023/05/25 04:58:15;;;;;;;16.55;7.40;;;;;;;10.41;100.00;102794.03;5037896;28;20053;-72
2023/05/25 05:00:41;;;;;;;19.95;7.50;;;;;;;10.48;100.00;102797.88;5034670;28;20028;-71
2023/05/25 05:03:06;;;;;;;21.73;8.13;;;;;;;10.52;100.00;102800.16;5041767;28;20534;-73
2023/05/25 05:05:33;;;;;;;14.03;6.60;;;;;;;10.60;100.00;102799.44;5037039;28;21876;-73
2023/05/25 05:07:58;;;;;;;;;;;;;;;10.68;100.00;102794.06;5034426;28;20547;-72
2023/05/25 05:10:25;;;;;;;15.68;7.40;;;;;;;10.72;100.00;102801.00;5037030;28;19968;-72
2023/05/25 05:12:51;;;;;;;13.90;7.07;;;;;;;10.85;100.00;102793.28;5035263;28;20469;-71
2023/05/25 05:15:16;;;;;;;19.10;7.30;;;;;;;11.23;100.00;102799.41;5037531;28;20036;-71
2023/05/25 05:17:42;;;;;;;23.97;6.20;;;;;;;12.11;100.00;102794.81;5036831;28;20022;-72
2023/05/25 05:20:08;;;;;;;18.50;6.80;;;;;;;13.07;96.31;102794.59;5035606;28;20386;-71
2023/05/25 05:22:33;;;;;;;16.00;6.03;;;;;;;14.13;91.59;102800.94;5041891;28;20043;-72
2023/05/25 05:25:00;;;;;;;17.00;6.37;;;;;;;14.57;87.56;102805.94;5037271;28;20033;-72
2023/05/25 05:27:26;;;;;;;16.48;5.00;;;;;;;15.45;84.44;102813.06;5032736;28;20064;-72
2023/05/25 05:29:52;;;;;;;15.97;5.30;;;;;;;15.40;82.10;102815.50;5036111;28;21532;-71
2023/05/25 05:32:17;;;;;;;19.03;5.37;;;;;;;15.94;78.38;102800.63;5031146;28;20133;-73
2023/05/25 05:34:43;;;;;;;21.00;5.80;;;;;;;16.61;78.11;102819.06;5032328;28;20036;-72
2023/05/25 05:37:08;;;;;;;14.83;5.80;;;;;;;16.76;75.99;102812.50;5038481;28;20455;-72
2023/05/25 05:39:37;;;;;;;12.23;5.00;;;;;;;17.05;73.69;102817.19;5030743;28;20456;-72
2023/05/25 05:42:03;;;;;;;11.02;5.05;;;;;;;17.26;73.46;102820.91;5033116;28;20299;-71
2023/05/25 05:44:28;;;;;;;11.73;5.50;;;;;;;17.22;73.24;102818.69;5038469;28;20025;-70
2023/05/25 05:47:00;;;;;;;16.57;5.23;;;;;;;18.08;70.31;102825.13;5025773;28;20025;-71
2023/05/25 05:49:27;;;;;;;16.70;5.57;;;;;;;18.27;69.58;102827.19;5019780;28;20489;-70
2023/05/25 05:51:53;;;;;;;16.25;5.47;;;;;;;18.52;68.42;102834.09;5036926;28;20044;-70
2023/05/25 05:54:18;;;;;;;17.73;5.70;;;;;;;18.49;66.38;102827.03;5033579;28;20099;-71
2023/05/25 05:56:44;;;;;;;16.70;5.57;;;;;;;17.87;67.94;102828.72;5040631;28;20367;-71
2023/05/25 05:59:10;;;;;;;17.67;4.50;;;;;;;18.15;67.35;102834.34;5036915;28;20033;-71
2023/05/25 06:01:36;;;;;;;15.32;5.35;;;;;;;18.77;65.85;102827.88;5037545;28;20025;-71
2023/05/25 06:04:01;;;;;;;13.70;4.80;;;;;;;18.45;66.87;102834.03;5040545;28;20550;-70
2023/05/25 06:06:31;;;;;;;11.97;4.87;;;;;;;18.52;65.92;102836.88;5030859;28;20025;-70
2023/05/25 06:08:57;;;;;;;15.73;4.68;;;;;;;18.25;67.04;102841.28;5036552;28;20373;-70
2023/05/25 06:11:22;;;;;;;13.60;4.67;;;;;;;18.58;65.52;102841.59;5041564;28;20017;-71
2023/05/25 06:13:47;;;;;;;13.23;4.40;;;;;;;19.41;65.02;102845.16;5038270;28;20650;-70
2023/05/25 06:16:13;;;;;;;10.73;4.03;;;;;;;18.60;65.25;102842.25;5034299;28;20112;-70
2023/05/25 06:18:38;;;;;;;13.23;5.07;;;;;;;19.12;62.47;102848.19;5037472;28;20025;-70
2023/05/25 06:21:05;;;;;;;12.17;4.07;;;;;;;19.02;62.25;102836.59;5038808;28;20065;-70
2023/05/25 06:23:31;;;;;;;;;;;;;;;19.58;60.00;102846.56;5068279;28;20510;-70
2023/05/25 06:25:56;;;;;;;13.15;4.38;;;;;;;20.19;58.80;102843.56;5038359;28;19970;-70
2023/05/25 06:28:24;;;;;;;12.00;4.07;;;;;;;20.03;60.84;102852.25;5035066;28;20052;-69
2023/05/25 06:30:50;;;;;;;15.00;4.50;;;;;;;19.84;60.23;102843.88;5039089;28;20116;-69
2023/05/25 06:33:15;;;;;;;15.40;4.57;;;;;;;20.59;57.86;102847.22;5030973;28;20129;-69
2023/05/25 06:35:41;;;;;;;14.73;4.43;;;;;;;20.22;59.13;102853.41;5037644;28;20064;-69
2023/05/25 06:38:06;;;;;;;8.87;3.80;;;;;;;20.72;57.26;102855.56;5037938;28;20298;-69
2023/05/25 06:40:32;;;;;;;10.83;4.47;;;;;;;20.60;57.32;102857.28;5038645;28;20091;-69
2023/05/25 06:42:57;;;;;;;9.57;3.93;;;;;;;20.02;58.52;102856.09;5036060;28;20040;-69
2023/05/25 06:45:22;;;;;;;10.87;4.40;;;;;;;20.38;58.48;102862.19;5036759;28;21446;-69
2023/05/25 06:47:48;;;;;;;13.73;4.63;;;;;;;20.23;57.83;102863.47;5034467;28;20063;-69
2023/05/25 06:50:13;;;;;;;11.67;4.57;;;;;;;20.53;57.33;102864.75;5037118;28;20041;-71
2023/05/25 06:52:38;;;;;;;13.13;4.90;;;;;;;20.74;57.70;102867.34;5034981;28;20112;-70
2023/05/25 06:55:04;;;;;;;12.80;4.30;;;;;;;20.98;56.78;102861.16;5039669;28;20112;-71
2023/05/25 06:57:30;;;;;;;11.23;4.45;;;;;;;21.15;55.12;102862.41;5038149;28;20444;-69
2023/05/25 06:59:55;;;;;;;9.73;4.47;;;;;;;20.55;55.29;102874.63;5032850;28;20035;-72
2023/05/25 07:02:21;;;;;;;10.50;4.20;;;;;;;20.49;55.43;102871.84;5034891;28;20300;-70
2023/05/25 07:04:46;;;;;;;10.93;5.13;;;;;;;20.50;56.32;102873.56;5032874;28;20028;-71
2023/05/25 07:07:12;;;;;;;12.23;4.40;;;;;;;19.61;57.66;102885.03;5032826;28;20572;-73
2023/05/25 07:09:38;;;;;;;10.63;3.97;;;;;;;18.88;58.77;102890.34;5039157;28;20021;-71
2023/05/25 07:12:06;;;;;;;12.55;4.65;;;;;;;19.21;59.34;102894.22;5037575;28;20120;-70
2023/05/25 07:14:33;;;;;;;7.32;3.90;;;;;;;19.20;60.15;102895.28;5042538;28;20100;-69
2023/05/25 07:16:59;;;;;;;14.90;4.90;;;;;;;18.96;60.24;102887.41;5037237;28;20029;-70
2023/05/25 07:19:24;;;;;;;11.60;4.47;;;;;;;19.56;59.20;102887.59;5042511;28;20511;-69
2023/05/25 07:21:50;;;;;;;12.83;4.63;;;;;;;19.95;60.02;102885.81;5034834;28;20025;-68
2023/05/25 07:24:17;;;;;;;7.47;3.60;;;;;;;19.61;58.89;102893.38;5039585;28;20063;-68
2023/05/25 07:26:43;;;;;;;9.43;4.22;;;;;;;19.02;61.58;102884.69;5040064;28;20417;-68
2023/05/25 07:29:09;;;;;;;12.50;4.28;;;;;;;17.90;63.40;102892.13;5037198;28;20039;-68
2023/05/25 07:31:35;;;;;;;9.88;4.00;;;;;;;18.46;62.76;102888.47;5035550;28;20033;-68
2023/05/25 07:34:00;;;;;;;14.80;4.60;;;;;;;17.88;64.04;102896.97;5036130;28;20031;-68
2023/05/25 07:36:26;;;;;;;13.63;3.77;;;;;;;17.69;64.03;102894.84;5040540;28;20095;-70
2023/05/25 07:38:51;;;;;;;15.47;4.77;;;;;;;16.94;66.18;102903.50;5037052;28;20456;-69
2023/05/25 07:41:17;;;;;;;9.60;4.07;;;;;;;16.87;67.00;102903.38;5037979;28;20485;-68
2023/05/25 07:43:42;;;;;;;8.13;3.53;;;;;;;16.52;68.40;102906.84;5040099;28;20067;-68
2023/05/25 07:46:07;;;;;;;13.43;4.20;;;;;;;16.38;69.20;102912.31;5039992;28;20028;-68
2023/05/25 07:48:33;;;;;;;11.17;4.17;;;;;;;16.42;69.45;102909.00;5033744;28;20030;-68
2023/05/25 07:50:58;;;;;;;14.43;4.43;;;;;;;16.54;68.37;102907.50;5033484;28;20093;-67
2023/05/25 07:53:24;;;;;;;18.03;3.70;;;;;;;16.71;68.69;102908.22;5036514;28;20060;-67
2023/05/25 07:55:49;;;;;;;16.20;3.80;;;;;;;16.49;68.25;102909.13;5037660;28;20100;-68
2023/05/25 07:58:15;;;;;;;13.70;4.00;;;;;;;16.38;69.04;102918.66;5038946;28;20025;-68
2023/05/25 08:00:40;;;;;;;13.87;4.03;;;;;;;16.82;67.39;102916.94;5040853;28;20104;-68
2023/05/25 08:03:09;;;;;;;9.93;3.60;;;;;;;16.91;67.44;102918.59;5037383;28;20546;-68
2023/05/25 08:05:34;;;;;;;10.70;3.70;;;;;;;16.70;68.07;102929.50;5038196;28;20078;-68
2023/05/25 08:08:00;;;;;;;11.57;3.77;;;;;;;17.04;64.90;102926.25;5033491;28;20017;-68
2023/05/25 08:10:30;;;;;;;11.33;3.30;;;;;;;17.77;63.59;102921.59;5046034;28;20032;-69
2023/05/25 08:12:56;;;;;;;11.60;3.80;;;;;;;17.75;65.17;102926.47;5040382;28;20021;-69
2023/05/25 08:15:21;;;;;;;10.97;3.40;;;;;;;17.33;64.61;102923.47;5041028;28;20394;-68
2023/05/25 08:17:49;;;;;;;12.77;4.03;;;;;;;16.91;66.41;102931.59;5039951;28;20021;-68
2023/05/25 08:20:15;;;;;;;10.77;3.42;;;;;;;16.85;66.86;102922.09;5028181;28;20107;-69
2023/05/25 08:22:42;;;;;;;9.27;3.80;;;;;;;16.55;66.72;102930.50;5031964;28;20021;-69
2023/05/25 08:25:08;;;;;;;7.35;3.55;;;;;;;17.09;67.37;102934.84;5030232;28;20063;-69
2023/05/25 08:27:33;;;;;;;13.75;4.32;;;;;;;17.22;66.38;102927.59;5040182;28;20029;-69
2023/05/25 08:29:59;;;;;;;15.93;4.13;;;;;;;17.55;65.71;102945.59;5031930;28;20159;-69
2023/05/25 08:32:25;;;;;;;12.57;4.10;;;;;;;17.02;65.20;102931.97;5038938;28;20025;-69
2023/05/25 08:34:50;;;;;;;12.57;3.83;;;;;;;17.66;65.75;102938.72;5032214;28;20029;-68
2023/05/25 08:37:18;;;;;;;12.13;3.90;;;;;;;17.69;64.02;102935.56;5033858;28;20048;-69
2023/05/25 08:39:44;;;;;;;9.35;3.63;;;;;;;17.29;64.86;102936.03;5030966;28;20118;-69
2023/05/25 08:42:09;;;;;;;7.67;3.47;;;;;;;17.17;65.17;102937.50;5035511;28;20035;-69
2023/05/25 08:44:36;;;;;;;10.17;3.47;;;;;;;17.23;65.40;102945.09;5034621;28;20366;-70
2023/05/25 08:47:06;;;;;;;15.77;3.40;;;;;;;17.00;65.89;102945.16;5046139;28;20025;-70
2023/05/25 08:49:37;;;;;;;9.48;3.65;;;;;;;16.86;64.14;102945.97;5035899;28;20172;-69
2023/05/25 08:52:03;;;;;;;16.73;4.43;;;;;;;16.71;65.16;102946.97;5038271;28;20017;-69
2023/05/25 08:54:35;;;;;;;11.68;3.83;;;;;;;16.70;66.62;102948.03;5032365;28;20022;-68
2023/05/25 08:57:11;;;;;;;10.40;3.80;;;;;;;16.73;66.53;102939.34;5064345;28;20450;-69
2023/05/25 09:00:14;;;;;;;20.90;4.50;;;;;;;17.31;64.75;102951.41;5038469;28;20057;-69
2023/05/25 09:03:01;;;;;;;15.23;3.83;;;;;;;17.62;64.55;102949.31;5029533;28;20040;-71
2023/05/25 09:05:27;;;;;;;12.17;4.90;;;;;;;17.41;62.49;102946.47;5036486;28;20036;-71
2023/05/25 09:07:55;;;;;;;9.77;3.83;;;;;;;17.78;62.15;102945.50;5035108;28;22820;-69
2023/05/25 09:10:22;;;;;;;12.75;4.07;;;;;;;18.47;61.67;102936.53;5034452;28;20499;-68
2023/05/25 09:12:50;;;;;;;10.90;3.88;;;;;;;18.69;60.48;102943.78;5035523;28;20045;-69
2023/05/25 09:15:16;;;;;;;9.40;3.38;;;;;;;19.09;58.89;102934.72;5030695;28;20075;-69
2023/05/25 09:17:41;;;;;;;8.70;3.73;;;;;;;19.25;58.00;102935.31;5038728;28;20037;-69
2023/05/25 09:20:12;;;;;;;8.40;3.57;;;;;;;18.47;57.43;102936.53;5041430;28;20439;-69
2023/05/25 09:22:39;;;;;;;8.00;3.83;;;;;;;19.11;58.35;102938.16;5038612;28;20087;-69
2023/05/25 09:25:09;;;;;;;11.52;4.03;;;;;;;19.20;58.19;102939.75;5037312;28;20655;-70
2023/05/25 09:27:36;;;;;;;10.00;3.95;;;;;;;19.17;57.15;102938.22;5038210;28;20021;-69
2023/05/25 09:30:03;;;;;;;11.68;3.70;;;;;;;18.99;57.19;102937.84;5034765;28;20461;-70
2023/05/25 09:32:29;;;;;;;11.77;4.25;;;;;;;18.81;57.83;102939.41;5038485;28;20116;-69
2023/05/25 09:34:56;;;;;;;10.65;3.42;;;;;;;18.67;58.53;102945.91;5034980;28;20066;-70
2023/05/25 09:37:22;;;;;;;10.60;3.83;;;;;;;18.60;58.52;102928.31;5039359;28;20119;-69
2023/05/25 09:39:50;;;;;;;16.30;4.57;;;;;;;18.43;59.28;102933.28;5041711;28;20111;-69
2023/05/25 09:42:16;;;;;;;13.57;3.78;;;;;;;18.22;58.77;102929.59;5038087;28;20102;-69
2023/05/25 09:44:44;;;;;;;11.77;3.93;;;;;;;18.52;58.28;102925.69;5038458;28;20028;-69
2023/05/25 09:47:09;;;;;;;16.10;3.78;;;;;;;18.89;58.10;102939.28;5032088;28;20082;-69
2023/05/25 09:49:35;;;;;;;9.90;3.93;;;;;;;19.30;56.30;102941.13;5034939;28;20025;-69
2023/05/25 09:52:01;;;;;;;11.63;4.20;;;;;;;19.15;57.08;102942.28;5033976;28;20031;-70
2023/05/25 09:54:27;;;;;;;10.90;3.97;;;;;;;19.33;57.97;102934.31;5034060;28;20044;-69
2023/05/25 09:56:52;;;;;;;9.77;4.10;;;;;;;18.82;58.07;102941.13;5037124;28;20484;-69
2023/05/25 09:59:18;;;;;;;14.88;3.80;;;;;;;18.60;59.08;102940.28;5037714;28;20033;-69
2023/05/25 10:01:43;;;;;;;12.60;3.67;;;;;;;18.57;58.55;102939.84;5035413;28;20029;-70
2023/05/25 10:04:09;;;;;;;10.97;4.10;;;;;;;18.53;58.67;102944.06;5038170;28;20044;-69
2023/05/25 10:06:37;;;;;;;10.33;3.30;;;;;;;18.12;58.99;102943.78;5047828;28;20032;-70
2023/05/25 10:09:05;;;;;;;8.57;3.95;;;;;;;18.53;58.88;102941.28;5037639;28;20468;-70
2023/05/25 10:11:34;;;;;;;12.23;3.88;;;;;;;18.00;59.93;102941.72;5034114;28;20022;-69
2023/05/25 10:14:05;;;;;;;10.98;3.53;;;;;;;18.16;59.69;102939.59;5035865;28;20071;-69
2023/05/25 10:16:32;;;;;;;10.13;3.72;;;;;;;17.85;60.94;102944.53;5040235;28;20044;-69
2023/05/25 10:19:23;;;;;;;13.65;3.58;;;;;;;18.00;60.20;102944.50;5041096;28;20047;-69
2023/05/25 10:22:04;;;;;;;6.82;3.67;;;;;;;18.07;60.92;102942.66;5039705;28;20461;-70
2023/05/25 10:24:35;;;;;;;9.95;3.38;;;;;;;18.23;60.73;102947.97;5036945;28;20041;-70
2023/05/25 10:27:03;;;;;;;13.48;4.05;;;;;;;18.52;60.24;102940.41;5039701;28;20064;-69
2023/05/25 10:29:30;;;;;;;8.63;4.03;;;;;;;18.15;61.55;102945.31;5037441;28;20059;-70
2023/05/25 10:31:57;;;;;;;11.27;3.60;;;;;;;18.41;61.96;102940.09;5037188;28;20026;-69
2023/05/25 10:34:22;;;;;;;9.85;4.18;;;;;;;18.19;59.55;102943.88;5043436;28;20110;-69
2023/05/25 10:36:48;;;;;;;13.10;3.53;;;;;;;18.29;59.89;102953.59;5036424;28;20021;-69
2023/05/25 10:39:14;;;;;;;17.57;3.70;;;;;;;18.30;59.94;102944.19;5039832;28;20471;-69
2023/05/25 10:41:41;;;;;;;9.50;4.25;;;;;;;18.96;56.67;102937.41;5040585;28;20037;-69
2023/05/25 10:44:10;;;;;;;7.53;4.35;;;;;;;19.16;54.60;102946.75;5034493;28;20552;-69
2023/05/25 10:46:35;;;;;;;15.15;4.28;;;;;;;19.30;55.47;102941.13;5037999;28;20091;-68
2023/05/25 10:49:01;;;;;;;12.70;5.33;;;;;;;18.97;57.16;102944.66;5036579;28;20415;-70
2023/05/25 10:51:38;;;;;;;14.73;4.10;;;;;;;18.70;57.48;102943.59;5039451;28;20044;-69
2023/05/25 10:54:04;;;;;;;12.88;4.00;;;;;;;18.79;56.89;102945.16;5041178;28;20112;-70
2023/05/25 10:56:29;;;;;;;7.57;3.53;;;;;;;19.75;56.42;102942.47;5038600;28;20462;-69
2023/05/25 10:58:55;;;;;;;9.50;3.60;;;;;;;19.90;52.97;102943.19;5035779;28;20112;-69
2023/05/25 11:01:21;;;;;;;10.82;3.70;;;;;;;19.34;52.89;102947.13;5037890;28;20086;-69
2023/05/25 11:03:54;;;;;;;7.43;3.07;;;;;;;19.20;53.80;102951.69;5037122;28;20442;-69
2023/05/25 11:06:22;;;;;;;7.22;3.17;;;;;;;18.87;54.63;102944.16;5042387;28;20489;-70
2023/05/25 11:08:54;;;;;;;5.85;3.20;;;;;;;19.00;53.61;102952.63;5062524;28;20029;-70
2023/05/25 11:11:39;;;;;;;11.18;3.70;;;;;;;19.10;52.93;102939.25;5039870;28;20112;-70
2023/05/25 11:14:19;;;;;;;9.77;3.60;;;;;;;19.39;52.39;102944.59;5037460;28;20555;-69
2023/05/25 11:17:03;;;;;;;6.85;3.38;;;;;;;19.20;52.45;102939.75;5035986;28;20454;-70